sensor_id;sensor_type;location;lat;lon;timestamp;P1;P2;P0
32066;PMS7003;18573;47.890;35.066;2022-07-06T00:00:09;26.60;23.20;14.60
32066;PMS7003;18573;47.890;35.066;2022-07-06T00:02:39;26.20;25.00;14.60
32066;PMS7003;18573;47.890;35.066;2022-07-06T00:05:08;29.80;26.60;15.80
32066;PMS7003;18573;47.890;35.066;2022-07-06T00:07:37;25.20;25.20;14.80
32066;PMS7003;18573;47.890;35.066;2022-07-06T00:10:07;16.20;16.20;10.20
32066;PMS7003;18573;47.890;35.066;2022-07-06T00:12:36;24.20;23.40;17.20
32066;PMS7003;18573;47.890;35.066;2022-07-06T00:15:05;35.20;27.20;17.40
32066;PMS7003;18573;47.890;35.066;2022-07-06T00:17:35;25.60;24.60;16.80
32066;PMS7003;18573;47.890;35.066;2022-07-06T00:20:04;28.80;26.20;17.20
32066;PMS7003;18573;47.890;35.066;2022-07-06T00:22:34;24.80;23.00;16.20
32066;PMS7003;18573;47.890;35.066;2022-07-06T00:25:03;26.00;26.00;18.80
32066;PMS7003;18573;47.890;35.066;2022-07-06T00:27:33;31.20;29.60;19.00
32066;PMS7003;18573;47.890;35.066;2022-07-06T00:30:03;29.40;25.60;16.60
32066;PMS7003;18573;47.890;35.066;2022-07-06T00:32:32;27.60;27.60;17.80
32066;PMS7003;18573;47.890;35.066;2022-07-06T00:35:02;27.60;27.20;18.80
32066;PMS7003;18573;47.890;35.066;2022-07-06T00:37:32;29.00;26.80;20.00
32066;PMS7003;18573;47.890;35.066;2022-07-06T00:40:01;27.00;25.40;19.00
32066;PMS7003;18573;47.890;35.066;2022-07-06T00:42:38;23.40;22.80;17.00
32066;PMS7003;18573;47.890;35.066;2022-07-06T00:45:08;23.00;22.60;15.60
32066;PMS7003;18573;47.890;35.066;2022-07-06T00:47:39;32.60;27.00;17.00
32066;PMS7003;18573;47.890;35.066;2022-07-06T00:50:09;25.20;25.00;16.20
32066;PMS7003;18573;47.890;35.066;2022-07-06T00:52:43;31.80;26.20;18.20
32066;PMS7003;18573;47.890;35.066;2022-07-06T00:55:14;23.40;20.60;11.40
32066;PMS7003;18573;47.890;35.066;2022-07-06T00:57:45;27.40;27.00;19.00
32066;PMS7003;18573;47.890;35.066;2022-07-06T01:00:16;30.20;28.00;18.40
32066;PMS7003;18573;47.890;35.066;2022-07-06T01:02:47;28.00;28.00;18.20
32066;PMS7003;18573;47.890;35.066;2022-07-06T01:05:17;31.40;30.40;19.40
32066;PMS7003;18573;47.890;35.066;2022-07-06T01:07:47;29.40;27.00;18.00
32066;PMS7003;18573;47.890;35.066;2022-07-06T01:10:19;25.20;25.00;17.40
32066;PMS7003;18573;47.890;35.066;2022-07-06T01:12:49;29.40;29.40;18.20
32066;PMS7003;18573;47.890;35.066;2022-07-06T01:15:25;33.00;30.80;17.60
32066;PMS7003;18573;47.890;35.066;2022-07-06T01:17:50;29.80;28.40;18.60
32066;PMS7003;18573;47.890;35.066;2022-07-06T01:20:21;34.40;32.20;18.20
32066;PMS7003;18573;47.890;35.066;2022-07-06T01:22:52;33.40;32.00;19.20
32066;PMS7003;18573;47.890;35.066;2022-07-06T01:25:23;26.00;24.60;14.00
32066;PMS7003;18573;47.890;35.066;2022-07-06T01:27:53;31.00;30.20;20.00
32066;PMS7003;18573;47.890;35.066;2022-07-06T01:30:22;23.60;23.60;14.20
32066;PMS7003;18573;47.890;35.066;2022-07-06T01:32:51;26.80;25.00;15.40
32066;PMS7003;18573;47.890;35.066;2022-07-06T01:35:20;26.60;26.00;14.60
32066;PMS7003;18573;47.890;35.066;2022-07-06T01:37:52;24.00;21.80;12.20
32066;PMS7003;18573;47.890;35.066;2022-07-06T01:40:21;28.00;27.40;16.40
32066;PMS7003;18573;47.890;35.066;2022-07-06T01:42:50;27.40;24.60;14.00
32066;PMS7003;18573;47.890;35.066;2022-07-06T01:45:19;29.00;27.40;16.20
32066;PMS7003;18573;47.890;35.066;2022-07-06T01:47:48;33.40;32.40;19.40
32066;PMS7003;18573;47.890;35.066;2022-07-06T01:50:18;35.00;33.00;21.00
32066;PMS7003;18573;47.890;35.066;2022-07-06T01:52:47;31.00;30.20;20.60
32066;PMS7003;18573;47.890;35.066;2022-07-06T01:55:16;35.00;31.40;20.00
32066;PMS7003;18573;47.890;35.066;2022-07-06T01:57:45;34.80;33.80;22.80
32066;PMS7003;18573;47.890;35.066;2022-07-06T02:00:15;35.60;31.80;20.40
32066;PMS7003;18573;47.890;35.066;2022-07-06T02:02:44;31.60;31.00;20.00
32066;PMS7003;18573;47.890;35.066;2022-07-06T02:05:13;37.20;33.80;21.80
32066;PMS7003;18573;47.890;35.066;2022-07-06T02:07:42;31.00;27.20;18.80
32066;PMS7003;18573;47.890;35.066;2022-07-06T02:10:11;31.20;30.60;22.40
32066;PMS7003;18573;47.890;35.066;2022-07-06T02:12:41;33.40;33.20;20.60
32066;PMS7003;18573;47.890;35.066;2022-07-06T02:15:10;31.80;31.80;19.60
32066;PMS7003;18573;47.890;35.066;2022-07-06T02:17:39;33.60;33.00;19.40
32066;PMS7003;18573;47.890;35.066;2022-07-06T02:20:09;31.00;30.20;19.80
32066;PMS7003;18573;47.890;35.066;2022-07-06T02:22:39;36.60;31.40;19.60
32066;PMS7003;18573;47.890;35.066;2022-07-06T02:25:08;34.40;31.00;20.20
32066;PMS7003;18573;47.890;35.066;2022-07-06T02:27:37;34.00;29.80;19.40
32066;PMS7003;18573;47.890;35.066;2022-07-06T02:30:06;33.40;29.80;19.80
32066;PMS7003;18573;47.890;35.066;2022-07-06T02:32:36;29.80;28.60;20.60
32066;PMS7003;18573;47.890;35.066;2022-07-06T02:35:05;30.20;27.40;17.60
32066;PMS7003;18573;47.890;35.066;2022-07-06T02:37:35;30.80;27.80;17.80
32066;PMS7003;18573;47.890;35.066;2022-07-06T02:40:04;26.40;26.20;17.00
32066;PMS7003;18573;47.890;35.066;2022-07-06T02:42:34;30.00;28.00;18.20
32066;PMS7003;18573;47.890;35.066;2022-07-06T02:45:04;23.20;22.80;15.60
32066;PMS7003;18573;47.890;35.066;2022-07-06T02:47:34;31.00;28.60;16.40
32066;PMS7003;18573;47.890;35.066;2022-07-06T02:50:05;27.00;27.00;17.00
32066;PMS7003;18573;47.890;35.066;2022-07-06T02:52:34;43.80;38.60;24.00
32066;PMS7003;18573;47.890;35.066;2022-07-06T02:55:06;150.25;136.00;74.75
32066;PMS7003;18573;47.890;35.066;2022-07-06T02:57:35;31.40;30.20;20.20
32066;PMS7003;18573;47.890;35.066;2022-07-06T03:00:05;35.20;32.60;21.00
32066;PMS7003;18573;47.890;35.066;2022-07-06T03:02:36;35.80;33.20;21.00
32066;PMS7003;18573;47.890;35.066;2022-07-06T03:05:06;35.60;31.40;21.40
32066;PMS7003;18573;47.890;35.066;2022-07-06T03:07:35;31.80;29.80;19.60
32066;PMS7003;18573;47.890;35.066;2022-07-06T03:10:05;39.00;34.00;22.40
32066;PMS7003;18573;47.890;35.066;2022-07-06T03:12:34;43.20;37.40;24.80
32066;PMS7003;18573;47.890;35.066;2022-07-06T03:15:04;48.60;40.40;26.20
32066;PMS7003;18573;47.890;35.066;2022-07-06T03:17:36;43.40;37.00;25.40
32066;PMS7003;18573;47.890;35.066;2022-07-06T03:20:05;44.20;35.40;23.60
32066;PMS7003;18573;47.890;35.066;2022-07-06T03:22:35;40.80;35.60;24.80
32066;PMS7003;18573;47.890;35.066;2022-07-06T03:25:04;43.00;36.60;25.20
32066;PMS7003;18573;47.890;35.066;2022-07-06T03:27:33;41.20;35.20;22.00
32066;PMS7003;18573;47.890;35.066;2022-07-06T03:30:03;40.60;34.60;23.20
32066;PMS7003;18573;47.890;35.066;2022-07-06T03:32:34;42.80;36.20;24.60
32066;PMS7003;18573;47.890;35.066;2022-07-06T03:35:04;47.40;38.40;26.00
32066;PMS7003;18573;47.890;35.066;2022-07-06T03:37:33;51.00;42.20;28.40
32066;PMS7003;18573;47.890;35.066;2022-07-06T03:40:03;52.00;44.00;29.00
32066;PMS7003;18573;47.890;35.066;2022-07-06T03:42:32;51.20;42.20;28.40
32066;PMS7003;18573;47.890;35.066;2022-07-06T03:45:02;51.00;42.80;27.40
32066;PMS7003;18573;47.890;35.066;2022-07-06T03:47:32;49.40;39.80;26.00
32066;PMS7003;18573;47.890;35.066;2022-07-06T03:50:01;40.40;34.20;24.80
32066;PMS7003;18573;47.890;35.066;2022-07-06T03:52:30;47.20;38.20;25.40
32066;PMS7003;18573;47.890;35.066;2022-07-06T03:54:59;41.80;36.40;24.20
32066;PMS7003;18573;47.890;35.066;2022-07-06T03:57:29;40.20;34.40;23.20
32066;PMS7003;18573;47.890;35.066;2022-07-06T03:59:58;35.40;32.40;22.60
32066;PMS7003;18573;47.890;35.066;2022-07-06T04:02:27;44.40;35.00;23.00
32066;PMS7003;18573;47.890;35.066;2022-07-06T04:04:56;39.60;34.60;23.40
32066;PMS7003;18573;47.890;35.066;2022-07-06T04:07:26;42.40;36.00;23.60
32066;PMS7003;18573;47.890;35.066;2022-07-06T04:09:55;40.80;36.00;25.80
32066;PMS7003;18573;47.890;35.066;2022-07-06T04:12:24;40.00;33.80;22.80
32066;PMS7003;18573;47.890;35.066;2022-07-06T04:14:55;41.00;35.80;23.20
32066;PMS7003;18573;47.890;35.066;2022-07-06T04:17:25;39.60;34.60;23.80
32066;PMS7003;18573;47.890;35.066;2022-07-06T04:20:12;38.20;34.00;24.00
32066;PMS7003;18573;47.890;35.066;2022-07-06T04:22:41;39.60;33.80;23.00
32066;PMS7003;18573;47.890;35.066;2022-07-06T04:25:10;45.00;37.80;23.40
32066;PMS7003;18573;47.890;35.066;2022-07-06T04:27:39;46.20;39.20;26.60
32066;PMS7003;18573;47.890;35.066;2022-07-06T04:30:09;45.00;37.20;25.40
32066;PMS7003;18573;47.890;35.066;2022-07-06T04:32:39;44.00;37.60;25.80
32066;PMS7003;18573;47.890;35.066;2022-07-06T04:35:08;46.20;38.80;25.80
32066;PMS7003;18573;47.890;35.066;2022-07-06T04:37:38;46.00;39.00;26.60
32066;PMS7003;18573;47.890;35.066;2022-07-06T04:40:07;46.40;38.80;27.20
32066;PMS7003;18573;47.890;35.066;2022-07-06T04:42:38;50.40;40.00;26.80
32066;PMS7003;18573;47.890;35.066;2022-07-06T04:45:08;50.20;41.00;28.60
32066;PMS7003;18573;47.890;35.066;2022-07-06T04:47:38;50.40;41.00;28.20
32066;PMS7003;18573;47.890;35.066;2022-07-06T04:50:07;47.80;38.80;25.60
32066;PMS7003;18573;47.890;35.066;2022-07-06T04:52:37;47.40;39.00;27.20
32066;PMS7003;18573;47.890;35.066;2022-07-06T04:55:06;53.80;44.00;28.60
32066;PMS7003;18573;47.890;35.066;2022-07-06T04:57:37;50.80;41.60;29.00
32066;PMS7003;18573;47.890;35.066;2022-07-06T05:00:06;23.80;21.80;19.20
32066;PMS7003;18573;47.890;35.066;2022-07-06T05:02:36;51.20;42.20;27.00
32066;PMS7003;18573;47.890;35.066;2022-07-06T05:05:06;64.20;50.60;32.40
32066;PMS7003;18573;47.890;35.066;2022-07-06T05:07:36;56.20;45.40;29.80
32066;PMS7003;18573;47.890;35.066;2022-07-06T05:10:08;65.20;53.20;32.20
32066;PMS7003;18573;47.890;35.066;2022-07-06T05:12:38;67.60;50.60;30.80
32066;PMS7003;18573;47.890;35.066;2022-07-06T05:15:08;61.00;47.20;30.80
32066;PMS7003;18573;47.890;35.066;2022-07-06T05:17:38;50.80;41.60;27.00
32066;PMS7003;18573;47.890;35.066;2022-07-06T05:20:07;55.20;44.20;29.00
32066;PMS7003;18573;47.890;35.066;2022-07-06T05:22:37;57.20;46.20;28.40
32066;PMS7003;18573;47.890;35.066;2022-07-06T05:25:08;57.00;45.40;29.60
32066;PMS7003;18573;47.890;35.066;2022-07-06T05:27:37;60.20;48.20;29.60
32066;PMS7003;18573;47.890;35.066;2022-07-06T05:30:06;61.40;49.20;30.60
32066;PMS7003;18573;47.890;35.066;2022-07-06T05:32:36;50.80;41.80;26.80
32066;PMS7003;18573;47.890;35.066;2022-07-06T05:35:06;56.80;45.00;29.40
32066;PMS7003;18573;47.890;35.066;2022-07-06T05:37:37;61.80;50.00;32.40
32066;PMS7003;18573;47.890;35.066;2022-07-06T05:40:07;54.40;44.20;29.20
32066;PMS7003;18573;47.890;35.066;2022-07-06T05:42:36;59.40;47.60;29.80
32066;PMS7003;18573;47.890;35.066;2022-07-06T05:45:06;63.60;53.20;36.00
32066;PMS7003;18573;47.890;35.066;2022-07-06T05:47:35;56.40;44.60;28.80
32066;PMS7003;18573;47.890;35.066;2022-07-06T05:50:22;65.60;51.40;31.60
32066;PMS7003;18573;47.890;35.066;2022-07-06T05:53:02;58.80;48.60;31.80
32066;PMS7003;18573;47.890;35.066;2022-07-06T05:55:34;54.20;45.80;31.20
32066;PMS7003;18573;47.890;35.066;2022-07-06T05:58:03;71.60;65.80;42.40
32066;PMS7003;18573;47.890;35.066;2022-07-06T06:00:32;68.20;58.60;38.40
32066;PMS7003;18573;47.890;35.066;2022-07-06T06:03:01;61.20;51.00;32.40
32066;PMS7003;18573;47.890;35.066;2022-07-06T06:05:30;63.20;51.80;34.20
32066;PMS7003;18573;47.890;35.066;2022-07-06T06:08:00;53.40;45.00;32.00
32066;PMS7003;18573;47.890;35.066;2022-07-06T06:10:29;57.00;47.60;32.60
32066;PMS7003;18573;47.890;35.066;2022-07-06T06:12:58;63.00;51.20;32.20
32066;PMS7003;18573;47.890;35.066;2022-07-06T06:15:27;43.60;37.60;24.60
32066;PMS7003;18573;47.890;35.066;2022-07-06T06:17:57;49.00;41.00;27.60
32066;PMS7003;18573;47.890;35.066;2022-07-06T06:20:26;42.20;36.40;26.00
32066;PMS7003;18573;47.890;35.066;2022-07-06T06:22:56;30.60;29.20;20.80
32066;PMS7003;18573;47.890;35.066;2022-07-06T06:25:28;38.60;34.00;25.80
32066;PMS7003;18573;47.890;35.066;2022-07-06T06:27:58;36.80;33.20;24.20
32066;PMS7003;18573;47.890;35.066;2022-07-06T06:30:28;41.20;36.00;25.60
32066;PMS7003;18573;47.890;35.066;2022-07-06T06:33:32;38.80;34.20;25.00
32066;PMS7003;18573;47.890;35.066;2022-07-06T06:35:42;31.20;29.60;21.20
32066;PMS7003;18573;47.890;35.066;2022-07-06T06:38:13;40.00;34.80;25.00
32066;PMS7003;18573;47.890;35.066;2022-07-06T06:40:43;44.00;38.00;26.40
32066;PMS7003;18573;47.890;35.066;2022-07-06T06:43:12;40.00;35.00;25.40
32066;PMS7003;18573;47.890;35.066;2022-07-06T06:45:41;39.40;35.00;23.40
32066;PMS7003;18573;47.890;35.066;2022-07-06T06:48:11;41.40;36.00;26.40
32066;PMS7003;18573;47.890;35.066;2022-07-06T06:50:42;44.60;38.20;27.00
32066;PMS7003;18573;47.890;35.066;2022-07-06T06:53:12;52.00;43.80;29.20
32066;PMS7003;18573;47.890;35.066;2022-07-06T06:55:42;47.40;40.80;27.60
32066;PMS7003;18573;47.890;35.066;2022-07-06T06:58:11;43.20;37.20;26.00
32066;PMS7003;18573;47.890;35.066;2022-07-06T07:00:40;46.00;38.60;26.40
32066;PMS7003;18573;47.890;35.066;2022-07-06T07:03:10;40.20;35.20;26.20
32066;PMS7003;18573;47.890;35.066;2022-07-06T07:05:39;44.00;37.60;26.00
32066;PMS7003;18573;47.890;35.066;2022-07-06T07:08:08;34.80;31.60;24.80
32066;PMS7003;18573;47.890;35.066;2022-07-06T07:10:37;26.40;26.20;22.80
32066;PMS7003;18573;47.890;35.066;2022-07-06T07:13:07;23.20;23.20;20.20
32066;PMS7003;18573;47.890;35.066;2022-07-06T07:15:36;27.00;27.00;21.00
32066;PMS7003;18573;47.890;35.066;2022-07-06T07:18:05;37.00;32.80;24.60
32066;PMS7003;18573;47.890;35.066;2022-07-06T07:20:36;28.20;27.80;20.60
32066;PMS7003;18573;47.890;35.066;2022-07-06T07:23:05;37.40;33.00;23.60
32066;PMS7003;18573;47.890;35.066;2022-07-06T07:25:34;33.20;31.20;23.00
32066;PMS7003;18573;47.890;35.066;2022-07-06T07:28:05;34.40;31.40;23.00
32066;PMS7003;18573;47.890;35.066;2022-07-06T07:30:34;33.20;31.00;23.20
32066;PMS7003;18573;47.890;35.066;2022-07-06T07:33:03;33.00;30.80;24.60
32066;PMS7003;18573;47.890;35.066;2022-07-06T07:35:32;32.40;30.40;21.60
32066;PMS7003;18573;47.890;35.066;2022-07-06T07:38:02;33.00;30.80;22.80
32066;PMS7003;18573;47.890;35.066;2022-07-06T07:40:31;31.00;29.80;22.60
32066;PMS7003;18573;47.890;35.066;2022-07-06T07:43:01;33.20;30.40;22.60
32066;PMS7003;18573;47.890;35.066;2022-07-06T07:45:30;32.00;30.20;22.60
32066;PMS7003;18573;47.890;35.066;2022-07-06T07:47:59;29.60;28.60;20.80
32066;PMS7003;18573;47.890;35.066;2022-07-06T07:50:28;31.60;30.00;22.20
32066;PMS7003;18573;47.890;35.066;2022-07-06T07:52:57;34.80;32.00;23.60
32066;PMS7003;18573;47.890;35.066;2022-07-06T07:55:27;29.00;28.00;21.40
32066;PMS7003;18573;47.890;35.066;2022-07-06T07:57:58;32.80;30.60;23.00
32066;PMS7003;18573;47.890;35.066;2022-07-06T08:00:27;30.00;29.20;21.20
32066;PMS7003;18573;47.890;35.066;2022-07-06T08:02:59;29.20;28.60;22.20
32066;PMS7003;18573;47.890;35.066;2022-07-06T08:05:28;26.00;26.00;20.80
32066;PMS7003;18573;47.890;35.066;2022-07-06T08:07:58;28.20;27.60;20.80
32066;PMS7003;18573;47.890;35.066;2022-07-06T08:10:27;26.80;26.60;20.40
32066;PMS7003;18573;47.890;35.066;2022-07-06T08:12:58;25.40;25.40;19.60
32066;PMS7003;18573;47.890;35.066;2022-07-06T08:15:27;27.80;27.60;20.80
32066;PMS7003;18573;47.890;35.066;2022-07-06T08:17:58;25.60;25.60;19.80
32066;PMS7003;18573;47.890;35.066;2022-07-06T08:20:27;25.60;25.60;20.40
32066;PMS7003;18573;47.890;35.066;2022-07-06T08:22:59;29.80;29.00;20.60
32066;PMS7003;18573;47.890;35.066;2022-07-06T08:25:29;25.20;25.20;20.60
32066;PMS7003;18573;47.890;35.066;2022-07-06T08:27:59;23.20;23.20;19.00
32066;PMS7003;18573;47.890;35.066;2022-07-06T08:30:29;25.00;25.00;20.40
32066;PMS7003;18573;47.890;35.066;2022-07-06T08:33:00;24.40;24.40;19.60
32066;PMS7003;18573;47.890;35.066;2022-07-06T08:35:31;26.60;26.60;18.80
32066;PMS7003;18573;47.890;35.066;2022-07-06T08:38:00;25.80;25.00;18.80
32066;PMS7003;18573;47.890;35.066;2022-07-06T08:40:31;24.40;24.40;18.40
32066;PMS7003;18573;47.890;35.066;2022-07-06T08:43:03;22.60;22.60;18.60
32066;PMS7003;18573;47.890;35.066;2022-07-06T08:45:33;22.40;22.40;18.80
32066;PMS7003;18573;47.890;35.066;2022-07-06T08:48:04;21.80;21.80;19.20
32066;PMS7003;18573;47.890;35.066;2022-07-06T08:50:34;19.20;19.20;17.20
32066;PMS7003;18573;47.890;35.066;2022-07-06T08:53:04;21.20;21.20;17.80
32066;PMS7003;18573;47.890;35.066;2022-07-06T08:55:34;19.00;19.00;16.00
32066;PMS7003;18573;47.890;35.066;2022-07-06T08:58:03;22.20;22.20;18.20
32066;PMS7003;18573;47.890;35.066;2022-07-06T09:00:33;18.60;18.60;16.80
32066;PMS7003;18573;47.890;35.066;2022-07-06T09:03:03;21.80;21.80;17.20
32066;PMS7003;18573;47.890;35.066;2022-07-06T09:05:34;20.00;20.00;16.60
32066;PMS7003;18573;47.890;35.066;2022-07-06T09:08:04;25.40;25.40;18.80
32066;PMS7003;18573;47.890;35.066;2022-07-06T09:10:33;20.80;19.60;15.60
32066;PMS7003;18573;47.890;35.066;2022-07-06T09:13:06;21.80;21.80;17.80
32066;PMS7003;18573;47.890;35.066;2022-07-06T09:15:37;21.20;21.20;17.80
32066;PMS7003;18573;47.890;35.066;2022-07-06T09:18:06;23.40;23.40;19.20
32066;PMS7003;18573;47.890;35.066;2022-07-06T09:20:36;19.80;19.80;16.00
32066;PMS7003;18573;47.890;35.066;2022-07-06T09:23:05;20.00;20.00;17.80
32066;PMS7003;18573;47.890;35.066;2022-07-06T09:25:36;20.80;20.80;16.80
32066;PMS7003;18573;47.890;35.066;2022-07-06T09:28:05;23.00;23.00;18.60
32066;PMS7003;18573;47.890;35.066;2022-07-06T09:30:34;13.00;13.00;12.00
32066;PMS7003;18573;47.890;35.066;2022-07-06T09:33:05;18.80;18.80;14.80
32066;PMS7003;18573;47.890;35.066;2022-07-06T09:35:37;19.20;19.20;16.80
32066;PMS7003;18573;47.890;35.066;2022-07-06T09:38:11;17.40;17.40;13.20
32066;PMS7003;18573;47.890;35.066;2022-07-06T09:40:42;21.20;21.20;18.40
32066;PMS7003;18573;47.890;35.066;2022-07-06T09:43:17;24.40;23.80;16.60
32066;PMS7003;18573;47.890;35.066;2022-07-06T09:45:50;28.00;27.60;19.80
32066;PMS7003;18573;47.890;35.066;2022-07-06T09:48:24;28.60;27.40;18.60
32066;PMS7003;18573;47.890;35.066;2022-07-06T09:50:56;32.20;28.60;19.60
32066;PMS7003;18573;47.890;35.066;2022-07-06T09:53:28;28.40;28.00;20.00
32066;PMS7003;18573;47.890;35.066;2022-07-06T09:55:57;25.60;25.60;18.60
32066;PMS7003;18573;47.890;35.066;2022-07-06T09:58:27;28.00;27.40;18.80
32066;PMS7003;18573;47.890;35.066;2022-07-06T10:00:58;27.40;26.40;20.00
32066;PMS7003;18573;47.890;35.066;2022-07-06T10:03:28;29.80;27.80;18.80
32066;PMS7003;18573;47.890;35.066;2022-07-06T10:05:59;25.80;25.00;18.40
32066;PMS7003;18573;47.890;35.066;2022-07-06T10:08:28;23.80;23.80;17.60
32066;PMS7003;18573;47.890;35.066;2022-07-06T10:11:00;25.20;23.60;17.80
32066;PMS7003;18573;47.890;35.066;2022-07-06T10:13:30;24.20;24.20;18.20
32066;PMS7003;18573;47.890;35.066;2022-07-06T10:16:02;16.20;16.00;10.80
32066;PMS7003;18573;47.890;35.066;2022-07-06T10:18:32;24.20;24.20;17.80
32066;PMS7003;18573;47.890;35.066;2022-07-06T10:21:03;23.40;21.20;15.60
32066;PMS7003;18573;47.890;35.066;2022-07-06T10:23:32;27.20;25.60;18.20
32066;PMS7003;18573;47.890;35.066;2022-07-06T10:26:03;21.80;21.80;17.20
32066;PMS7003;18573;47.890;35.066;2022-07-06T10:28:35;26.80;26.20;18.80
32066;PMS7003;18573;47.890;35.066;2022-07-06T10:31:06;26.60;25.20;18.20
32066;PMS7003;18573;47.890;35.066;2022-07-06T10:33:36;31.40;27.40;20.00
32066;PMS7003;18573;47.890;35.066;2022-07-06T10:36:07;32.40;29.80;19.20
32066;PMS7003;18573;47.890;35.066;2022-07-06T10:38:37;27.00;26.20;18.60
32066;PMS7003;18573;47.890;35.066;2022-07-06T10:41:07;29.20;28.20;19.40
32066;PMS7003;18573;47.890;35.066;2022-07-06T10:43:43;22.40;21.80;15.40
32066;PMS7003;18573;47.890;35.066;2022-07-06T10:46:14;27.40;26.80;19.40
32066;PMS7003;18573;47.890;35.066;2022-07-06T10:48:47;26.00;25.80;18.20
32066;PMS7003;18573;47.890;35.066;2022-07-06T10:51:27;25.60;25.60;18.00
32066;PMS7003;18573;47.890;35.066;2022-07-06T10:54:03;29.40;29.00;20.40
32066;PMS7003;18573;47.890;35.066;2022-07-06T10:56:46;30.80;28.20;20.20
32066;PMS7003;18573;47.890;35.066;2022-07-06T10:59:16;25.60;25.60;19.60
32066;PMS7003;18573;47.890;35.066;2022-07-06T11:04:44;27.40;27.40;19.00
32066;PMS7003;18573;47.890;35.066;2022-07-06T11:07:15;27.40;26.60;19.20
32066;PMS7003;18573;47.890;35.066;2022-07-06T11:09:56;27.20;27.20;17.60
32066;PMS7003;18573;47.890;35.066;2022-07-06T11:12:27;24.80;24.80;17.60
32066;PMS7003;18573;47.890;35.066;2022-07-06T11:14:56;25.80;25.60;16.40
32066;PMS7003;18573;47.890;35.066;2022-07-06T11:17:27;20.80;20.80;15.40
32066;PMS7003;18573;47.890;35.066;2022-07-06T11:19:57;28.00;27.60;19.20
32066;PMS7003;18573;47.890;35.066;2022-07-06T11:22:27;26.80;26.60;19.00
32066;PMS7003;18573;47.890;35.066;2022-07-06T11:24:58;27.40;27.40;17.40
32066;PMS7003;18573;47.890;35.066;2022-07-06T11:27:27;28.60;27.20;18.40
32066;PMS7003;18573;47.890;35.066;2022-07-06T11:29:58;28.00;27.40;19.00
32066;PMS7003;18573;47.890;35.066;2022-07-06T11:32:27;31.20;29.60;20.80
32066;PMS7003;18573;47.890;35.066;2022-07-06T11:34:56;31.20;29.40;19.40
32066;PMS7003;18573;47.890;35.066;2022-07-06T11:37:25;22.20;22.20;16.80
32066;PMS7003;18573;47.890;35.066;2022-07-06T11:39:55;23.40;23.40;16.80
32066;PMS7003;18573;47.890;35.066;2022-07-06T11:42:24;22.40;22.40;15.20
32066;PMS7003;18573;47.890;35.066;2022-07-06T11:44:53;26.80;26.80;19.00
32066;PMS7003;18573;47.890;35.066;2022-07-06T11:47:29;26.00;26.00;19.40
32066;PMS7003;18573;47.890;35.066;2022-07-06T11:49:54;25.20;25.20;18.80
32066;PMS7003;18573;47.890;35.066;2022-07-06T11:52:23;28.40;27.00;18.00
32066;PMS7003;18573;47.890;35.066;2022-07-06T11:55:03;27.60;26.00;18.60
32066;PMS7003;18573;47.890;35.066;2022-07-06T11:57:27;29.40;25.60;19.00
32066;PMS7003;18573;47.890;35.066;2022-07-06T11:59:59;30.60;28.40;20.40
32066;PMS7003;18573;47.890;35.066;2022-07-06T12:02:29;31.60;30.20;20.80
32066;PMS7003;18573;47.890;35.066;2022-07-06T12:04:58;28.00;24.40;16.20
32066;PMS7003;18573;47.890;35.066;2022-07-06T12:07:27;29.40;28.60;19.00
32066;PMS7003;18573;47.890;35.066;2022-07-06T12:09:56;24.20;24.20;16.40
32066;PMS7003;18573;47.890;35.066;2022-07-06T12:12:26;30.80;29.80;19.20
32066;PMS7003;18573;47.890;35.066;2022-07-06T12:14:55;28.00;26.00;17.00
32066;PMS7003;18573;47.890;35.066;2022-07-06T12:17:24;26.80;26.40;17.60
32066;PMS7003;18573;47.890;35.066;2022-07-06T12:19:54;25.00;22.60;17.40
32066;PMS7003;18573;47.890;35.066;2022-07-06T12:22:26;22.20;22.20;15.20
32066;PMS7003;18573;47.890;35.066;2022-07-06T12:24:55;23.20;23.20;15.80
32066;PMS7003;18573;47.890;35.066;2022-07-06T12:27:26;24.20;23.40;15.80
32066;PMS7003;18573;47.890;35.066;2022-07-06T12:30:04;22.40;22.40;15.80
32066;PMS7003;18573;47.890;35.066;2022-07-06T12:32:27;21.60;21.60;16.00
32066;PMS7003;18573;47.890;35.066;2022-07-06T12:35:06;24.20;23.00;16.40
32066;PMS7003;18573;47.890;35.066;2022-07-06T12:37:38;21.80;21.40;16.60
32066;PMS7003;18573;47.890;35.066;2022-07-06T12:40:13;21.40;21.20;16.00
32066;PMS7003;18573;47.890;35.066;2022-07-06T12:42:47;21.40;21.40;15.20
32066;PMS7003;18573;47.890;35.066;2022-07-06T12:45:16;21.40;21.40;16.60
32066;PMS7003;18573;47.890;35.066;2022-07-06T12:48:05;22.40;21.60;16.80
32066;PMS7003;18573;47.890;35.066;2022-07-06T12:50:35;23.20;23.20;17.20
32066;PMS7003;18573;47.890;35.066;2022-07-06T12:53:06;22.00;21.80;17.00
32066;PMS7003;18573;47.890;35.066;2022-07-06T12:55:38;23.20;22.20;15.60
32066;PMS7003;18573;47.890;35.066;2022-07-06T12:58:12;23.20;23.20;17.80
32066;PMS7003;18573;47.890;35.066;2022-07-06T13:00:45;23.80;23.20;16.80
32066;PMS7003;18573;47.890;35.066;2022-07-06T13:03:14;23.60;23.20;17.40
32066;PMS7003;18573;47.890;35.066;2022-07-06T13:05:48;24.40;24.40;19.00
32066;PMS7003;18573;47.890;35.066;2022-07-06T13:08:15;22.20;21.80;16.80
32066;PMS7003;18573;47.890;35.066;2022-07-06T13:10:44;26.20;24.40;18.80
32066;PMS7003;18573;47.890;35.066;2022-07-06T13:13:14;29.60;28.40;19.00
32066;PMS7003;18573;47.890;35.066;2022-07-06T13:15:43;23.40;21.80;16.20
32066;PMS7003;18573;47.890;35.066;2022-07-06T13:18:12;24.20;23.80;17.00
32066;PMS7003;18573;47.890;35.066;2022-07-06T13:20:42;25.00;24.80;18.40
32066;PMS7003;18573;47.890;35.066;2022-07-06T13:23:11;28.00;27.60;19.20
32066;PMS7003;18573;47.890;35.066;2022-07-06T13:25:40;24.40;23.20;17.00
32066;PMS7003;18573;47.890;35.066;2022-07-06T13:28:09;23.80;23.20;17.40
32066;PMS7003;18573;47.890;35.066;2022-07-06T13:30:38;29.60;28.00;18.60
32066;PMS7003;18573;47.890;35.066;2022-07-06T13:33:08;27.60;27.40;19.80
32066;PMS7003;18573;47.890;35.066;2022-07-06T13:35:37;30.80;29.40;19.00
32066;PMS7003;18573;47.890;35.066;2022-07-06T13:38:06;27.60;27.40;20.20
32066;PMS7003;18573;47.890;35.066;2022-07-06T13:40:37;26.60;26.60;19.60
32066;PMS7003;18573;47.890;35.066;2022-07-06T13:43:08;23.60;23.00;18.40
32066;PMS7003;18573;47.890;35.066;2022-07-06T13:45:37;27.80;27.40;20.60
32066;PMS7003;18573;47.890;35.066;2022-07-06T13:48:06;25.40;25.40;19.20
32066;PMS7003;18573;47.890;35.066;2022-07-06T13:50:35;30.20;28.20;20.00
32066;PMS7003;18573;47.890;35.066;2022-07-06T13:53:05;30.40;29.00;20.40